Doris — 9HA2632 — position and weather

sailwx.info

Track history (hours):
 
Tides and Currents Weather Stations Pressure Air Temp Water Temp Dewpoint Dewpoint Depression Visibility Wind Speed Wind Dir Waves Ship Positions

Doris

Last reported at 2016-Nov-26 18:24 UTC. Time now 2016-Dec-06 12:09 UTC.
Position N 38°26' E 121°12'.
Warning: this ship's position is 9 days out of date.

Length 182 m; draft 5.8 m.

Type: Cargo ship. MMSI: 215080000.

Date/timePositionNaut miles runAvg speedWind from/ knotsBaromVisibWave heightAir tempDewpointWater temp
2016-Nov-26 18:24N 38°26' E 121°12'1112.9
2016-Nov-26 17:33N 38°31' E 120°59'1111.5
2016-Nov-26 16:33N 38°30' E 120°45'1413.5
2016-Nov-26 15:33N 38°21' E 120°33'43 2.0
2016-Nov-25 18:05N 37°39' E 120°17'0 0.0
2016-Nov-25 17:29N 37°39' E 120°17'0 0.0
2016-Nov-25 16:29N 37°39' E 120°17'0 0.0
2016-Nov-25 15:23N 37°39' E 120°17'0 0.0
2016-Nov-25 14:17N 37°39' E 120°17'0 0.0
2016-Nov-25 13:29N 37°39' E 120°17'0 0.0
2016-Nov-25 12:29N 37°39' E 120°17'0 0.0
2016-Nov-25 11:29N 37°39' E 120°17'0 0.1
2016-Nov-25 07:33N 37°39' E 120°17'5 5.4
2016-Nov-25 06:33N 37°41' E 120°11'1 1.1
2016-Nov-25 05:33N 37°41' E 120°10'0 0.0
2016-Nov-25 04:32N 37°41' E 120°10'0 0.0
2016-Nov-25 03:31N 37°41' E 120°10'0 0.1
2016-Nov-25 02:31N 37°41' E 120°10'0 0.1
2016-Nov-25 01:25N 37°41' E 120°10'0 0.1
2016-Nov-25 00:25N 37°40' E 120°10'5 6.0
2016-Nov-24 23:32N 37°46' E 120°11'42 6.0
2016-Nov-24 16:27N 38°24' E 120°35'6 6.8
2016-Nov-24 15:33N 38°29' E 120°40'8 7.9
2016-Nov-24 14:33N 38°35' E 120°46'  
Track history (hours):
 
Tides and Currents Weather Stations Pressure Air Temp Water Temp Dewpoint Dewpoint Depression Visibility Wind Speed Wind Dir Waves Ship Positions

Doris

Last reported at 2016-Nov-26 18:24 UTC. Time now 2016-Dec-06 12:09 UTC.
Position N 38°26' E 121°12'.
Warning: this ship's position is 9 days out of date.

Length 182 m; draft 5.8 m.

Type: Cargo ship. MMSI: 215080000.

Date/timePositionNaut miles runAvg speedWind from/ knotsBaromVisibWave heightAir tempDewpointWater temp
2016-Nov-26 18:24N 38°26' E 121°12'1112.9
2016-Nov-26 17:33N 38°31' E 120°59'1111.5
2016-Nov-26 16:33N 38°30' E 120°45'1413.5
2016-Nov-26 15:33N 38°21' E 120°33'43 2.0
2016-Nov-25 18:05N 37°39' E 120°17'0 0.0
2016-Nov-25 17:29N 37°39' E 120°17'0 0.0
2016-Nov-25 16:29N 37°39' E 120°17'0 0.0
2016-Nov-25 15:23N 37°39' E 120°17'0 0.0
2016-Nov-25 14:17N 37°39' E 120°17'0 0.0
2016-Nov-25 13:29N 37°39' E 120°17'0 0.0
2016-Nov-25 12:29N 37°39' E 120°17'0 0.0
2016-Nov-25 11:29N 37°39' E 120°17'0 0.1
2016-Nov-25 07:33N 37°39' E 120°17'5 5.4
2016-Nov-25 06:33N 37°41' E 120°11'1 1.1
2016-Nov-25 05:33N 37°41' E 120°10'0 0.0
2016-Nov-25 04:32N 37°41' E 120°10'0 0.0
2016-Nov-25 03:31N 37°41' E 120°10'0 0.1
2016-Nov-25 02:31N 37°41' E 120°10'0 0.1
2016-Nov-25 01:25N 37°41' E 120°10'0 0.1
2016-Nov-25 00:25N 37°40' E 120°10'5 6.0
2016-Nov-24 23:32N 37°46' E 120°11'42 6.0
2016-Nov-24 16:27N 38°24' E 120°35'6 6.8
2016-Nov-24 15:33N 38°29' E 120°40'8 7.9
2016-Nov-24 14:33N 38°35' E 120°46'  

Dump ship's entire track history